createdAt,value
2022-12-01T00:03:51.300Z,19.20
2022-12-01T00:09:16.649Z,19.90
2022-12-01T00:14:23.481Z,17.50
2022-12-01T00:19:46.605Z,18.60
2022-12-01T00:24:49.830Z,17.90
2022-12-01T00:29:52.662Z,19.10
2022-12-01T00:34:59.315Z,20.30
2022-12-01T00:40:04.103Z,19.30
2022-12-01T00:45:07.572Z,19.60
2022-12-01T00:50:11.018Z,19.80
2022-12-01T00:55:15.419Z,18.40
2022-12-01T01:00:19.999Z,21.30
2022-12-01T01:05:24.117Z,20.70
2022-12-01T01:10:27.182Z,20.00
2022-12-01T01:15:31.101Z,20.10
2022-12-01T01:20:34.150Z,22.30
2022-12-01T01:25:37.012Z,19.60
2022-12-01T01:30:40.745Z,17.20
2022-12-01T01:35:46.195Z,20.40
2022-12-01T01:40:49.637Z,19.70
2022-12-01T01:45:52.605Z,19.60
2022-12-01T01:50:55.525Z,18.00
2022-12-01T01:55:59.055Z,19.30
2022-12-01T02:01:03.482Z,20.40
2022-12-01T02:06:10.659Z,18.80
2022-12-01T02:11:22.135Z,18.60
2022-12-01T02:16:52.483Z,18.50
2022-12-01T02:22:33.951Z,19.30
2022-12-01T02:27:59.420Z,19.30
2022-12-01T02:34:15.180Z,19.60
2022-12-01T02:39:31.227Z,19.30
2022-12-01T02:44:40.334Z,19.50
2022-12-01T02:49:54.309Z,20.50
2022-12-01T02:54:57.353Z,21.00
2022-12-01T03:00:00.638Z,17.40
2022-12-01T03:05:12.769Z,19.30
2022-12-01T03:10:26.479Z,19.40
2022-12-01T03:16:12.775Z,19.20
2022-12-01T03:21:42.546Z,20.10
2022-12-01T03:26:51.908Z,19.10
2022-12-01T03:31:59.123Z,20.80
2022-12-01T03:37:07.497Z,17.80
2022-12-01T03:42:23.455Z,20.40
2022-12-01T03:47:33.111Z,20.90
2022-12-01T03:53:06.098Z,20.00
2022-12-01T03:58:39.635Z,22.30
2022-12-01T04:03:42.636Z,19.10
2022-12-01T04:08:45.457Z,20.00
2022-12-01T04:13:50.027Z,20.40
2022-12-01T04:18:53.077Z,21.10
2022-12-01T04:24:04.705Z,20.80
2022-12-01T04:29:10.377Z,23.10
2022-12-01T04:34:14.017Z,22.20
2022-12-01T04:39:19.839Z,22.10
2022-12-01T04:44:28.940Z,22.80
2022-12-01T04:49:37.465Z,24.30
2022-12-01T04:54:40.481Z,21.40
2022-12-01T04:59:43.340Z,22.20
2022-12-01T05:04:49.320Z,22.60
2022-12-01T05:09:52.466Z,23.30
2022-12-01T05:14:57.687Z,23.70
2022-12-01T05:20:22.378Z,24.00
2022-12-01T05:25:25.542Z,23.70
2022-12-01T05:30:51.044Z,23.00
2022-12-01T05:35:55.276Z,25.80
2022-12-01T05:40:58.611Z,22.50
2022-12-01T05:46:01.685Z,21.80
2022-12-01T05:51:15.424Z,20.70
2022-12-01T05:56:18.273Z,21.20
2022-12-01T06:01:23.050Z,22.10
2022-12-01T06:06:28.084Z,24.30
2022-12-01T06:11:31.130Z,20.30
2022-12-01T06:16:34.107Z,20.10
2022-12-01T06:21:37.379Z,19.70
2022-12-01T06:26:40.294Z,18.30
2022-12-01T06:31:44.036Z,17.80
2022-12-01T06:36:46.947Z,18.50
2022-12-01T06:41:52.616Z,17.30
2022-12-01T06:46:57.336Z,16.50
2022-12-01T06:52:01.668Z,18.70
2022-12-01T06:57:04.900Z,20.20
2022-12-01T07:02:11.813Z,19.70
2022-12-01T07:07:14.919Z,18.30
2022-12-01T07:12:19.218Z,20.30
2022-12-01T07:17:26.106Z,17.50
2022-12-01T07:22:32.635Z,18.60
2022-12-01T07:27:36.240Z,18.40
2022-12-01T07:32:40.419Z,17.50
2022-12-01T07:37:45.549Z,21.10
2022-12-01T07:42:48.575Z,19.50
2022-12-01T07:47:54.584Z,20.70
2022-12-01T07:52:57.411Z,19.10
2022-12-01T07:58:00.908Z,20.20
2022-12-01T08:03:06.059Z,25.20
2022-12-01T08:08:09.072Z,22.40
2022-12-01T08:13:17.124Z,24.20
2022-12-01T08:18:20.837Z,23.30
2022-12-01T08:23:23.751Z,24.50
2022-12-01T08:28:26.656Z,23.80
2022-12-01T08:33:29.433Z,21.30
2022-12-01T08:38:32.910Z,22.60
2022-12-01T08:49:04.758Z,22.80
2022-12-01T08:54:07.635Z,24.60
2022-12-01T08:59:10.499Z,24.20
2022-12-01T09:04:13.342Z,23.40
2022-12-01T09:09:23.146Z,20.90
2022-12-01T09:14:25.999Z,20.20
2022-12-01T09:19:28.979Z,21.60
2022-12-01T09:24:31.778Z,21.50
2022-12-01T09:29:35.082Z,20.60
2022-12-01T09:34:37.968Z,23.10
2022-12-01T09:39:40.753Z,25.10
2022-12-01T09:44:55.827Z,26.10
2022-12-01T09:50:13.865Z,25.20
2022-12-01T09:55:19.113Z,29.00
2022-12-01T10:00:31.510Z,31.90
2022-12-01T10:06:18.430Z,34.30
2022-12-01T10:11:36.921Z,32.20
2022-12-01T10:17:19.813Z,33.60
2022-12-01T10:22:50.727Z,35.40
2022-12-01T10:28:06.335Z,35.30
2022-12-01T10:33:27.204Z,39.90
2022-12-01T10:38:36.485Z,39.30
2022-12-01T10:43:45.571Z,45.50
2022-12-01T10:48:57.353Z,44.90
2022-12-01T10:54:08.087Z,41.70
2022-12-01T10:59:55.012Z,46.00
2022-12-01T11:05:25.192Z,49.90
2022-12-01T11:10:32.017Z,43.50
2022-12-01T11:15:40.378Z,45.70
2022-12-01T11:20:43.181Z,55.20
2022-12-01T11:26:15.166Z,54.40
2022-12-01T11:31:19.563Z,52.00
2022-12-01T11:36:43.001Z,53.20
2022-12-01T11:41:46.088Z,62.40
2022-12-01T11:52:27.652Z,53.40
2022-12-01T11:57:35.194Z,62.40
2022-12-01T12:02:54.022Z,55.20
2022-12-01T12:08:16.083Z,54.20
2022-12-01T12:13:59.849Z,53.10
2022-12-01T12:19:17.671Z,49.40
2022-12-01T12:24:28.510Z,49.40
2022-12-01T12:29:45.998Z,41.10
2022-12-01T12:35:12.425Z,40.10
2022-12-01T12:40:27.376Z,31.90
2022-12-01T12:46:05.119Z,23.70
2022-12-01T12:51:25.920Z,20.00
2022-12-01T12:56:43.489Z,21.10
2022-12-01T13:02:18.823Z,22.50
2022-12-01T13:07:49.140Z,17.80
2022-12-01T13:13:28.087Z,16.90
2022-12-01T13:19:19.530Z,16.10
2022-12-01T13:24:36.669Z,14.10
2022-12-01T13:29:51.129Z,15.00
2022-12-01T13:34:54.113Z,14.00
2022-12-01T13:40:07.525Z,13.50
2022-12-01T13:45:17.997Z,12.20
2022-12-01T13:50:55.705Z,12.90
2022-12-01T13:56:07.140Z,15.60
2022-12-01T14:01:22.529Z,14.10
2022-12-01T14:06:49.503Z,14.10
2022-12-01T14:12:03.604Z,15.20
2022-12-01T14:17:06.624Z,14.80
2022-12-01T14:22:45.819Z,13.10
2022-12-01T14:27:52.923Z,17.50
2022-12-01T14:33:45.910Z,15.10
2022-12-01T14:38:52.582Z,14.50
2022-12-01T14:44:05.785Z,16.20
2022-12-01T14:49:26.428Z,17.30
2022-12-01T14:54:35.088Z,14.50
2022-12-01T15:05:19.968Z,15.60
2022-12-01T15:10:35.786Z,15.40
2022-12-01T15:15:48.805Z,18.90
2022-12-01T15:20:55.543Z,18.80
2022-12-01T15:25:59.649Z,17.10
2022-12-01T15:31:11.078Z,18.90
2022-12-01T15:36:15.232Z,16.60
2022-12-01T15:41:30.414Z,23.80
2022-12-01T15:46:36.996Z,22.30
2022-12-01T15:51:40.267Z,26.00
2022-12-01T15:56:44.564Z,25.70
2022-12-01T16:01:48.080Z,29.70
2022-12-01T16:07:07.105Z,29.20
2022-12-01T16:12:24.966Z,31.90
2022-12-01T16:17:44.380Z,29.50
2022-12-01T16:22:50.277Z,27.90
2022-12-01T16:27:56.478Z,32.30
2022-12-01T16:33:15.295Z,31.10
2022-12-01T16:43:27.405Z,29.60
2022-12-01T16:48:31.351Z,32.30
2022-12-01T16:53:37.492Z,28.40
2022-12-01T16:58:40.452Z,30.60
2022-12-01T17:03:43.325Z,29.70
2022-12-01T17:08:46.865Z,29.30
2022-12-01T17:13:50.565Z,27.60
2022-12-01T17:18:53.454Z,29.60
2022-12-01T17:23:58.939Z,30.20
2022-12-01T17:29:01.809Z,29.70
2022-12-01T17:34:05.587Z,34.10
2022-12-01T17:39:08.998Z,28.80
2022-12-01T17:44:12.147Z,31.00
2022-12-01T17:49:15.619Z,30.80
2022-12-01T17:54:19.782Z,32.10
2022-12-01T17:59:23.332Z,31.70
2022-12-01T18:04:26.365Z,32.20
2022-12-01T18:09:29.433Z,32.90
2022-12-01T18:14:34.565Z,39.10
2022-12-01T18:19:37.636Z,34.10
2022-12-01T18:24:45.669Z,36.80
2022-12-01T18:29:48.575Z,34.40
2022-12-01T18:34:51.958Z,34.80
2022-12-01T18:39:56.541Z,33.80
2022-12-01T18:44:59.551Z,34.20
2022-12-01T18:50:11.254Z,32.00
2022-12-01T18:55:14.212Z,32.20
2022-12-01T19:00:17.583Z,31.70
2022-12-01T19:05:21.268Z,28.40
2022-12-01T19:10:24.108Z,25.70
2022-12-01T19:15:26.934Z,24.70
2022-12-01T19:20:29.867Z,23.10
2022-12-01T19:25:36.779Z,22.70
2022-12-01T19:30:44.004Z,20.50
2022-12-01T19:35:49.852Z,24.20
2022-12-01T19:40:52.778Z,27.20
2022-12-01T19:45:56.280Z,29.00
2022-12-01T19:50:59.433Z,27.00
2022-12-01T19:56:03.185Z,29.00
2022-12-01T20:01:08.757Z,29.60
2022-12-01T20:06:20.677Z,30.50
2022-12-01T20:11:24.379Z,29.60
2022-12-01T20:16:28.140Z,33.10
2022-12-01T20:21:39.303Z,33.90
2022-12-01T20:26:48.681Z,31.30
2022-12-01T20:31:52.897Z,32.70
2022-12-01T20:36:56.559Z,33.00
2022-12-01T20:41:59.796Z,32.10
2022-12-01T20:47:02.730Z,32.90
2022-12-01T20:52:05.626Z,30.10
2022-12-01T20:57:09.857Z,28.20
2022-12-01T21:02:13.894Z,33.20
2022-12-01T21:07:17.047Z,33.40
2022-12-01T21:12:38.814Z,31.70
2022-12-01T21:17:48.714Z,32.80
2022-12-01T21:22:51.788Z,32.80
2022-12-01T21:27:59.538Z,31.90
2022-12-01T21:33:33.338Z,32.80
2022-12-01T21:38:36.286Z,32.60
2022-12-01T21:43:39.215Z,33.20
2022-12-01T21:48:42.336Z,29.40
2022-12-01T21:53:45.764Z,26.80
2022-12-01T21:58:51.337Z,27.00
2022-12-01T22:04:02.659Z,23.00
2022-12-01T22:09:32.982Z,27.80
2022-12-01T22:14:36.235Z,26.30
2022-12-01T22:19:45.700Z,27.90
2022-12-01T22:24:51.788Z,27.60
2022-12-01T22:30:07.345Z,27.40
2022-12-01T22:35:22.618Z,26.80
2022-12-01T22:40:28.364Z,24.90
2022-12-01T22:45:31.197Z,26.40
2022-12-01T22:50:34.013Z,24.90
2022-12-01T22:55:37.005Z,25.90
2022-12-01T23:00:40.975Z,27.00
2022-12-01T23:05:44.297Z,23.80
2022-12-01T23:10:47.659Z,24.90
2022-12-01T23:15:53.812Z,23.40
2022-12-01T23:20:59.083Z,24.00
2022-12-01T23:26:03.952Z,26.60
2022-12-01T23:31:07.042Z,26.50
2022-12-01T23:36:21.853Z,22.80
2022-12-01T23:41:37.243Z,24.10
2022-12-01T23:46:41.700Z,24.90
2022-12-01T23:51:48.430Z,26.70
2022-12-01T23:56:57.110Z,22.80
